Time;durP1;ratioP1;P1;durP2;ratioP2;P2;SDS_P1;SDS_P2;PMS_P1;PMS_P2;Temp;Humidity;BMP_temperature;BMP_pressure;BME280_temperature;BME280_humidity;BME280_pressure;Samples;Min_cycle;Max_cycle;Signal;HPM_P1;HPM_P2
2022/03/30 00:00:38;;;;;;;;;;;;;;;;;;4222729;28;954;-53
2022/03/30 00:02:59;;;;;;;;;;;;;;;;;;4220075;28;2668;-52
2022/03/30 00:05:20;;;;;;;;;;;;;;;;;;4203853;28;1073;-52
2022/03/30 00:07:40;;;;;;;;;;;;;;;;;;4205579;28;982;-52
2022/03/30 00:10:01;;;;;;;;;;;;;;;;;;4205267;28;1018;-52
2022/03/30 00:12:22;;;;;;;;;;;;;;;;;;4204875;28;1596;-52
2022/03/30 00:14:43;;;;;;;;;;;;;;;;;;4205225;28;1354;-52
2022/03/30 00:17:03;;;;;;;;;;;;;;;;;;4214126;28;1090;-52
2022/03/30 00:19:24;;;;;;;;;;;;;;;;;;4221776;28;1079;-53
2022/03/30 00:21:45;;;;;;;;;;;;;;;;;;4221470;28;1105;-52
2022/03/30 00:24:06;;;;;;;;;;;;;;;;;;4221636;28;1035;-53
2022/03/30 00:26:27;;;;;;;;;;;;;;;;;;4221996;28;1169;-52
2022/03/30 00:28:48;;;;;;;;;;;;;;;;;;4221732;28;1297;-52
2022/03/30 00:31:11;;;;;;;;;;;;;;;;;;4221875;28;1210;-53
2022/03/30 00:33:32;;;;;;;;;;;;;;;;;;4221617;28;979;-52
2022/03/30 00:35:52;;;;;;;;;;;;;;;;;;4221964;28;1021;-52
2022/03/30 00:38:13;;;;;;;;;;;;;;;;;;4221465;28;1988;-53
2022/03/30 00:40:34;;;;;;;;;;;;;;;;;;4221586;28;925;-52
2022/03/30 00:42:54;;;;;;;;;;;;;;;;;;4221851;28;1195;-52
2022/03/30 00:45:15;;;;;;;;;;;;;;;;;;4221697;28;1115;-52
2022/03/30 00:47:37;;;;;;;;;;;;;;;;;;4221788;28;1160;-52
2022/03/30 00:49:57;;;;;;;;;;;;;;;;;;4221628;28;979;-52
2022/03/30 00:52:18;;;;;;;;;;;;;;;;;;4221794;28;958;-52
2022/03/30 00:54:39;;;;;;;;;;;;;;;;;;4221547;28;1245;-53
2022/03/30 00:56:59;;;;;;;;;;;;;;;;;;4221617;28;926;-53
2022/03/30 00:59:20;;;;;;;;;;;;;;;;;;4220051;28;1984;-52
2022/03/30 01:01:41;;;;;;;;;;;;;;;;;;4222833;28;831;-52
2022/03/30 01:04:01;;;;;;;;;;;;;;;;;;4204107;28;2253;-52
2022/03/30 01:06:22;;;;;;;;;;;;;;;;;;4203706;28;1108;-53
2022/03/30 01:08:43;;;;;;;;;;;;;;;;;;4203884;28;1224;-52
2022/03/30 01:11:04;;;;;;;;;;;;;;;;;;4204182;28;929;-52
2022/03/30 01:13:25;;;;;;;;;;;;;;;;;;4203389;28;1400;-52
2022/03/30 01:15:45;;;;;;;;;;;;;;;;;;4203597;28;975;-52
2022/03/30 01:18:06;;;;;;;;;;;;;;;;;;4204200;28;1914;-52
2022/03/30 01:20:27;;;;;;;;;;;;;;;;;;4204350;28;1124;-52
2022/03/30 01:22:47;;;;;;;;;;;;;;;;;;4204159;28;1009;-53
2022/03/30 01:25:08;;;;;;;;;;;;;;;;;;4204217;28;1145;-52
2022/03/30 01:27:29;;;;;;;;;;;;;;;;;;4203733;28;1198;-52
2022/03/30 01:32:29;;;;;;;;;;;;;;;;;;4203892;28;953;-52
2022/03/30 01:34:49;;;;;;;;;;;;;;;;;;4204016;28;1117;-52
2022/03/30 01:37:10;;;;;;;;;;;;;;;;;;4204310;28;1006;-53
2022/03/30 01:39:31;;;;;;;;;;;;;;;;;;4214457;28;1886;-53
2022/03/30 01:41:52;;;;;;;;;;;;;;;;;;4221265;28;881;-52
2022/03/30 01:44:12;;;;;;;;;;;;;;;;;;4220489;28;1018;-52
2022/03/30 01:46:33;;;;;;;;;;;;;;;;;;4219977;28;2130;-52
2022/03/30 01:48:54;;;;;;;;;;;;;;;;;;4217903;28;1697;-52
2022/03/30 01:51:15;;;;;;;;;;;;;;;;;;4217092;28;1546;-53
2022/03/30 01:53:36;;;;;;;;;;;;;;;;;;4219378;28;1650;-52
2022/03/30 01:55:57;;;;;;;;;;;;;;;;;;4219481;28;1852;-52
2022/03/30 01:58:18;;;;;;;;;;;;;;;;;;4218646;28;1898;-53
2022/03/30 02:00:39;;;;;;;;;;;;;;;;;;4219253;28;2204;-53
2022/03/30 02:03:00;;;;;;;;;;;;;;;;;;4219733;28;1077;-52
2022/03/30 02:05:21;;;;;;;;;;;;;;;;;;4222099;28;1693;-52
2022/03/30 02:07:42;;;;;;;;;;;;;;;;;;4218807;28;1534;-52
2022/03/30 02:10:03;;;;;;;;;;;;;;;;;;4218303;28;1570;-52
2022/03/30 02:12:23;;;;;;;;;;;;;;;;;;4218026;28;1357;-53
2022/03/30 02:14:44;;;;;;;;;;;;;;;;;;4218501;28;1070;-53
2022/03/30 02:17:05;;;;;;;;;;;;;;;;;;4219314;28;986;-52
2022/03/30 02:19:25;;;;;;;;;;;;;;;;;;4219776;28;1909;-53
2022/03/30 02:21:46;;;;;;;;;;;;;;;;;;4219283;28;983;-53
2022/03/30 02:24:07;;;;;;;;;;;;;;;;;;4219879;28;887;-53
2022/03/30 02:26:30;;;;;;;;;;;;;;;;;;4219541;28;1041;-53
2022/03/30 02:28:52;;;;;;;;;;;;;;;;;;4218885;28;970;-53
2022/03/30 02:31:12;;;;;;;;;;;;;;;;;;4219297;28;988;-52
2022/03/30 02:33:33;;;;;;;;;;;;;;;;;;4218967;28;962;-52
2022/03/30 02:35:53;;;;;;;;;;;;;;;;;;4218587;28;979;-52
2022/03/30 02:38:15;;;;;;;;;;;;;;;;;;4218988;28;1921;-52
2022/03/30 02:40:35;;;;;;;;;;;;;;;;;;4219031;28;985;-52
2022/03/30 02:42:56;;;;;;;;;;;;;;;;;;4219294;28;1129;-52
2022/03/30 02:45:17;;;;;;;;;;;;;;;;;;4219243;28;1021;-52
2022/03/30 02:50:16;;;;;;;;;;;;;;;;;;4219053;28;950;-52
2022/03/30 02:52:36;;;;;;;;;;;;;;;;;;4219202;28;970;-53
2022/03/30 02:54:57;;;;;;;;;;;;;;;;;;4219959;28;979;-52
2022/03/30 02:57:18;;;;;;;;;;;;;;;;;;4220073;28;885;-52
2022/03/30 02:59:38;;;;;;;;;;;;;;;;;;4236943;28;2048;-53
2022/03/30 03:01:59;;;;;;;;;;;;;;;;;;4237385;28;825;-52
2022/03/30 03:04:20;;;;;;;;;;;;;;;;;;4240092;28;813;-52
2022/03/30 03:06:41;;;;;;;;;;;;;;;;;;4240005;28;821;-52
2022/03/30 03:09:01;;;;;;;;;;;;;;;;;;4239849;27;1020;-52
2022/03/30 03:11:22;;;;;;;;;;;;;;;;;;4238278;28;923;-52
2022/03/30 03:13:43;;;;;;;;;;;;;;;;;;4239746;28;878;-52
2022/03/30 03:16:03;;;;;;;;;;;;;;;;;;4240203;28;904;-53
2022/03/30 03:18:24;;;;;;;;;;;;;;;;;;4239778;28;1910;-53
2022/03/30 03:20:45;;;;;;;;;;;;;;;;;;4239633;27;946;-52
2022/03/30 03:23:05;;;;;;;;;;;;;;;;;;4239889;28;1049;-52
2022/03/30 03:25:29;;;;;;;;;;;;;;;;;;4239647;27;1298;-52
2022/03/30 03:27:50;;;;;;;;;;;;;;;;;;4239680;28;959;-52
2022/03/30 03:30:11;;;;;;;;;;;;;;;;;;4239490;27;1023;-52
2022/03/30 03:32:32;;;;;;;;;;;;;;;;;;4239482;27;1174;-53
2022/03/30 03:34:53;;;;;;;;;;;;;;;;;;4239466;27;999;-52
2022/03/30 03:37:14;;;;;;;;;;;;;;;;;;4239789;27;1171;-52
2022/03/30 03:39:35;;;;;;;;;;;;;;;;;;4239256;27;1917;-52
2022/03/30 03:41:56;;;;;;;;;;;;;;;;;;4237961;28;1009;-52
2022/03/30 03:44:16;;;;;;;;;;;;;;;;;;4239466;27;1047;-52
2022/03/30 03:46:37;;;;;;;;;;;;;;;;;;4239460;27;957;-53
2022/03/30 03:48:58;;;;;;;;;;;;;;;;;;4239447;27;1046;-52
2022/03/30 03:51:19;;;;;;;;;;;;;;;;;;4239872;28;1039;-52
2022/03/30 03:53:40;;;;;;;;;;;;;;;;;;4239069;27;1092;-53
2022/03/30 03:56:01;;;;;;;;;;;;;;;;;;4239203;27;1004;-52
2022/03/30 03:58:22;;;;;;;;;;;;;;;;;;4239209;27;910;-52
2022/03/30 04:00:42;;;;;;;;;;;;;;;;;;4239049;28;1009;-53
2022/03/30 04:03:03;;;;;;;;;;;;;;;;;;4239198;28;812;-52
2022/03/30 04:05:24;;;;;;;;;;;;;;;;;;4239304;27;929;-52
2022/03/30 04:07:45;;;;;;;;;;;;;;;;;;4239422;27;978;-54
2022/03/30 04:10:06;;;;;;;;;;;;;;;;;;4239232;28;1171;-53
2022/03/30 04:12:26;;;;;;;;;;;;;;;;;;4238988;27;1047;-53
2022/03/30 04:14:47;;;;;;;;;;;;;;;;;;4239380;28;881;-52
2022/03/30 04:17:08;;;;;;;;;;;;;;;;;;4239099;27;1226;-52
2022/03/30 04:19:29;;;;;;;;;;;;;;;;;;4239008;27;1929;-52
2022/03/30 04:21:50;;;;;;;;;;;;;;;;;;4239547;28;1131;-52
2022/03/30 04:24:11;;;;;;;;;;;;;;;;;;4239124;28;850;-52
2022/03/30 04:26:31;;;;;;;;;;;;;;;;;;4239143;27;966;-52
2022/03/30 04:28:52;;;;;;;;;;;;;;;;;;4238641;27;1308;-52
2022/03/30 04:31:13;;;;;;;;;;;;;;;;;;4239022;28;992;-52
2022/03/30 04:33:33;;;;;;;;;;;;;;;;;;4238980;28;948;-52
2022/03/30 04:35:54;;;;;;;;;;;;;;;;;;4239091;27;1040;-52
2022/03/30 04:38:15;;;;;;;;;;;;;;;;;;4238051;28;1027;-52
2022/03/30 04:40:35;;;;;;;;;;;;;;;;;;4238838;28;1902;-52
2022/03/30 04:42:56;;;;;;;;;;;;;;;;;;4238565;27;1147;-52
2022/03/30 04:45:17;;;;;;;;;;;;;;;;;;4239642;28;1122;-52
2022/03/30 04:47:37;;;;;;;;;;;;;;;;;;4238446;27;1053;-53
2022/03/30 04:49:58;;;;;;;;;;;;;;;;;;4238320;27;1160;-52
2022/03/30 04:52:19;;;;;;;;;;;;;;;;;;4238663;27;1178;-53
2022/03/30 04:54:40;;;;;;;;;;;;;;;;;;4238331;27;953;-53
2022/03/30 04:57:00;;;;;;;;;;;;;;;;;;4239013;28;855;-52
2022/03/30 04:59:21;;;;;;;;;;;;;;;;;;4238586;27;1918;-52
2022/03/30 05:01:42;;;;;;;;;;;;;;;;;;4238676;28;948;-53
2022/03/30 05:04:03;;;;;;;;;;;;;;;;;;4238714;28;1404;-52
2022/03/30 05:06:24;;;;;;;;;;;;;;;;;;4238665;28;914;-52
2022/03/30 05:08:44;;;;;;;;;;;;;;;;;;4237194;28;1088;-52
2022/03/30 05:11:05;;;;;;;;;;;;;;;;;;4237181;28;1167;-52
2022/03/30 05:13:25;;;;;;;;;;;;;;;;;;4238041;27;1069;-53
2022/03/30 05:15:46;;;;;;;;;;;;;;;;;;4236982;28;974;-53
2022/03/30 05:18:07;;;;;;;;;;;;;;;;;;4236906;28;1268;-52
2022/03/30 05:20:28;;;;;;;;;;;;;;;;;;4237800;27;1988;-52
2022/03/30 05:22:48;;;;;;;;;;;;;;;;;;4237522;27;993;-54
2022/03/30 05:25:09;;;;;;;;;;;;;;;;;;4236929;27;1200;-52
2022/03/30 05:27:30;;;;;;;;;;;;;;;;;;4237858;27;1322;-53
2022/03/30 05:29:50;;;;;;;;;;;;;;;;;;4237946;27;953;-52
2022/03/30 05:32:11;;;;;;;;;;;;;;;;;;4238012;28;1016;-52
2022/03/30 05:34:32;;;;;;;;;;;;;;;;;;4238094;27;1244;-52
2022/03/30 05:36:52;;;;;;;;;;;;;;;;;;4237998;27;977;-52
2022/03/30 05:39:13;;;;;;;;;;;;;;;;;;4238137;28;2004;-52
2022/03/30 05:41:34;;;;;;;;;;;;;;;;;;4238071;28;1121;-53
2022/03/30 05:43:55;;;;;;;;;;;;;;;;;;4223519;27;1832;-52
2022/03/30 05:46:15;;;;;;;;;;;;;;;;;;4220851;28;941;-52
2022/03/30 05:48:36;;;;;;;;;;;;;;;;;;4220723;28;1544;-53
2022/03/30 05:50:57;;;;;;;;;;;;;;;;;;4218419;28;1577;-51
2022/03/30 05:53:18;;;;;;;;;;;;;;;;;;4220125;28;1322;-52
2022/03/30 05:55:39;;;;;;;;;;;;;;;;;;4220769;28;1097;-52
2022/03/30 05:57:59;;;;;;;;;;;;;;;;;;4220827;28;976;-52
2022/03/30 06:00:20;;;;;;;;;;;;;;;;;;4220456;28;1973;-52
2022/03/30 06:02:41;;;;;;;;;;;;;;;;;;4221280;28;925;-52
2022/03/30 06:05:01;;;;;;;;;;;;;;;;;;4219848;28;1885;-52
2022/03/30 06:07:22;;;;;;;;;;;;;;;;;;4219541;28;2114;-52
2022/03/30 06:09:43;;;;;;;;;;;;;;;;;;4219246;28;1514;-52
2022/03/30 06:12:04;;;;;;;;;;;;;;;;;;4218883;28;1763;-52
2022/03/30 06:14:24;;;;;;;;;;;;;;;;;;4219820;28;1495;-53
2022/03/30 06:16:45;;;;;;;;;;;;;;;;;;4218393;28;1735;-52
2022/03/30 06:19:06;;;;;;;;;;;;;;;;;;4218317;28;1399;-52
2022/03/30 06:21:26;;;;;;;;;;;;;;;;;;4218594;28;1566;-52
2022/03/30 06:23:47;;;;;;;;;;;;;;;;;;4220583;28;828;-52
2022/03/30 06:26:07;;;;;;;;;;;;;;;;;;4220142;28;1021;-52
2022/03/30 06:28:29;;;;;;;;;;;;;;;;;;4220197;28;937;-52
2022/03/30 06:30:50;;;;;;;;;;;;;;;;;;4219492;28;1089;-52
2022/03/30 06:33:10;;;;;;;;;;;;;;;;;;4220567;28;921;-52
2022/03/30 06:35:31;;;;;;;;;;;;;;;;;;4218964;28;1073;-52
2022/03/30 06:37:51;;;;;;;;;;;;;;;;;;4220094;28;1078;-52
2022/03/30 06:40:12;;;;;;;;;;;;;;;;;;4220066;28;1980;-53
2022/03/30 06:42:33;;;;;;;;;;;;;;;;;;4220082;28;989;-52
2022/03/30 06:44:56;;;;;;;;;;;;;;;;;;4219780;28;1515;-52
2022/03/30 06:47:17;;;;;;;;;;;;;;;;;;4218425;28;2079;-52
2022/03/30 06:49:38;;;;;;;;;;;;;;;;;;4219035;28;1698;-52
2022/03/30 06:51:58;;;;;;;;;;;;;;;;;;4218103;28;1557;-52
2022/03/30 06:54:19;;;;;;;;;;;;;;;;;;4219500;28;1641;-53
2022/03/30 06:56:39;;;;;;;;;;;;;;;;;;4220079;28;1887;-52
2022/03/30 06:59:00;;;;;;;;;;;;;;;;;;4220084;28;978;-52
2022/03/30 07:01:21;;;;;;;;;;;;;;;;;;4220273;28;1984;-56
2022/03/30 07:03:42;;;;;;;;;;;;;;;;;;4220251;28;975;-52
2022/03/30 07:06:04;;;;;;;;;;;;;;;;;;4219835;28;1255;-52
2022/03/30 07:11:03;;;;;;;;;;;;;;;;;;4219883;28;932;-52
2022/03/30 07:13:24;;;;;;;;;;;;;;;;;;4220119;28;1344;-52
2022/03/30 07:15:44;;;;;;;;;;;;;;;;;;4219963;28;978;-53
2022/03/30 07:18:06;;;;;;;;;;;;;;;;;;4219931;28;947;-54
2022/03/30 07:20:27;;;;;;;;;;;;;;;;;;4219723;28;1982;-54
2022/03/30 07:22:48;;;;;;;;;;;;;;;;;;4218935;28;1316;-53
2022/03/30 07:25:09;;;;;;;;;;;;;;;;;;4219181;28;781;-53
2022/03/30 07:27:31;;;;;;;;;;;;;;;;;;4218920;28;1192;-53
2022/03/30 07:29:52;;;;;;;;;;;;;;;;;;4218954;28;961;-53
2022/03/30 07:32:13;;;;;;;;;;;;;;;;;;4218949;28;957;-54
2022/03/30 07:34:34;;;;;;;;;;;;;;;;;;4235495;27;1405;-55
2022/03/30 07:36:55;;;;;;;;;;;;;;;;;;4235563;27;1179;-55
2022/03/30 07:39:16;;;;;;;;;;;;;;;;;;4236840;28;1490;-55
2022/03/30 07:41:37;;;;;;;;;;;;;;;;;;4236526;27;1914;-55
2022/03/30 07:43:57;;;;;;;;;;;;;;;;;;4236708;27;1184;-55
2022/03/30 07:46:18;;;;;;;;;;;;;;;;;;4236836;27;944;-55
2022/03/30 07:48:39;;;;;;;;;;;;;;;;;;4237518;27;1141;-55
2022/03/30 07:50:59;;;;;;;;;;;;;;;;;;4239365;27;1104;-55
2022/03/30 07:53:20;;;;;;;;;;;;;;;;;;4239360;27;1044;-55
2022/03/30 07:55:41;;;;;;;;;;;;;;;;;;4239383;27;1015;-55
2022/03/30 07:58:02;;;;;;;;;;;;;;;;;;4239359;27;945;-54
2022/03/30 08:00:22;;;;;;;;;;;;;;;;;;4239090;27;1909;-55
2022/03/30 08:02:44;;;;;;;;;;;;;;;;;;4239337;27;1218;-54
2022/03/30 08:05:04;;;;;;;;;;;;;;;;;;4238882;27;965;-55
2022/03/30 08:07:26;;;;;;;;;;;;;;;;;;4238667;27;1184;-54
2022/03/30 08:09:47;;;;;;;;;;;;;;;;;;4238486;27;1009;-54
2022/03/30 08:12:08;;;;;;;;;;;;;;;;;;4237997;28;1122;-54
2022/03/30 08:14:28;;;;;;;;;;;;;;;;;;4236314;28;1305;-55
2022/03/30 08:16:52;;;;;;;;;;;;;;;;;;4237013;28;1151;-55
2022/03/30 08:19:13;;;;;;;;;;;;;;;;;;4238572;27;1034;-55
2022/03/30 08:24:12;;;;;;;;;;;;;;;;;;4238793;27;1013;-55
2022/03/30 08:26:33;;;;;;;;;;;;;;;;;;4238436;27;1114;-55
2022/03/30 08:28:54;;;;;;;;;;;;;;;;;;4238104;27;1184;-55
2022/03/30 08:31:15;;;;;;;;;;;;;;;;;;4237775;27;1232;-55
2022/03/30 08:33:36;;;;;;;;;;;;;;;;;;4237429;27;1148;-56
2022/03/30 08:35:56;;;;;;;;;;;;;;;;;;4237904;27;991;-55
2022/03/30 08:38:17;;;;;;;;;;;;;;;;;;4237133;27;968;-56
2022/03/30 08:40:39;;;;;;;;;;;;;;;;;;4237741;28;1996;-52
2022/03/30 08:42:59;;;;;;;;;;;;;;;;;;4236936;27;993;-51
2022/03/30 08:45:20;;;;;;;;;;;;;;;;;;4237541;27;1198;-52
2022/03/30 08:47:41;;;;;;;;;;;;;;;;;;4237123;27;1093;-52
2022/03/30 08:50:01;;;;;;;;;;;;;;;;;;4237112;27;1157;-52
2022/03/30 08:52:23;;;;;;;;;;;;;;;;;;4237522;27;1134;-51
2022/03/30 08:54:44;;;;;;;;;;;;;;;;;;4236919;27;1168;-52
2022/03/30 08:57:05;;;;;;;;;;;;;;;;;;4238470;28;800;-52
2022/03/30 08:59:26;;;;;;;;;;;;;;;;;;4237826;28;977;-52
2022/03/30 09:01:47;;;;;;;;;;;;;;;;;;4238117;27;1913;-52
2022/03/30 09:04:08;;;;;;;;;;;;;;;;;;4237278;28;983;-52
2022/03/30 09:06:30;;;;;;;;;;;;;;;;;;4238444;28;952;-52
2022/03/30 09:08:50;;;;;;;;;;;;;;;;;;4238477;27;1034;-52
2022/03/30 09:11:10;;;;;;;;;;;;;;;;;;4238437;27;1076;-53
2022/03/30 09:13:31;;;;;;;;;;;;;;;;;;4238458;28;1283;-52
2022/03/30 09:15:52;;;;;;;;;;;;;;;;;;4237887;27;942;-52
2022/03/30 09:18:14;;;;;;;;;;;;;;;;;;4238258;27;1203;-53
2022/03/30 09:20:35;;;;;;;;;;;;;;;;;;4237908;27;1988;-52
2022/03/30 09:22:55;;;;;;;;;;;;;;;;;;4237977;27;1202;-52
2022/03/30 09:25:17;;;;;;;;;;;;;;;;;;4237818;27;1176;-52
2022/03/30 09:27:41;;;;;;;;;;;;;;;;;;4238063;27;999;-52
2022/03/30 09:30:02;;;;;;;;;;;;;;;;;;4238321;28;912;-52
2022/03/30 09:32:23;;;;;;;;;;;;;;;;;;4238421;27;953;-52
2022/03/30 09:34:44;;;;;;;;;;;;;;;;;;4238100;27;1011;-52
2022/03/30 09:37:05;;;;;;;;;;;;;;;;;;4238430;27;1006;-52
2022/03/30 09:39:26;;;;;;;;;;;;;;;;;;4238179;27;953;-52
2022/03/30 09:41:47;;;;;;;;;;;;;;;;;;4238014;27;1955;-52
2022/03/30 09:44:07;;;;;;;;;;;;;;;;;;4237928;27;1274;-52
2022/03/30 09:46:28;;;;;;;;;;;;;;;;;;4237989;27;989;-53
2022/03/30 09:48:52;;;;;;;;;;;;;;;;;;4237863;27;1039;-53
2022/03/30 09:51:12;;;;;;;;;;;;;;;;;;4237930;27;926;-52
2022/03/30 09:53:33;;;;;;;;;;;;;;;;;;4237415;28;1309;-52
2022/03/30 09:55:54;;;;;;;;;;;;;;;;;;4238120;28;1215;-53
2022/03/30 09:58:15;;;;;;;;;;;;;;;;;;4237793;27;995;-52
2022/03/30 10:00:36;;;;;;;;;;;;;;;;;;4237673;27;1030;-52
2022/03/30 10:02:56;;;;;;;;;;;;;;;;;;4237734;28;867;-52
2022/03/30 10:05:17;;;;;;;;;;;;;;;;;;4237802;28;1076;-52
2022/03/30 10:07:38;;;;;;;;;;;;;;;;;;4238598;28;825;-52
2022/03/30 10:09:58;;;;;;;;;;;;;;;;;;4237678;28;1340;-52
2022/03/30 10:12:19;;;;;;;;;;;;;;;;;;4236294;28;1544;-52
2022/03/30 10:14:40;;;;;;;;;;;;;;;;;;4237796;28;953;-52
2022/03/30 10:17:01;;;;;;;;;;;;;;;;;;4237390;27;1219;-52
2022/03/30 10:19:22;;;;;;;;;;;;;;;;;;4237654;27;1134;-52
2022/03/30 10:21:44;;;;;;;;;;;;;;;;;;4237681;28;1937;-52
2022/03/30 10:24:05;;;;;;;;;;;;;;;;;;4237485;28;833;-52
2022/03/30 10:26:25;;;;;;;;;;;;;;;;;;4237497;27;839;-52
2022/03/30 10:28:46;;;;;;;;;;;;;;;;;;4237353;28;1132;-53
2022/03/30 10:31:07;;;;;;;;;;;;;;;;;;4237254;28;1214;-53
2022/03/30 10:33:27;;;;;;;;;;;;;;;;;;4237210;27;1052;-52
2022/03/30 10:35:48;;;;;;;;;;;;;;;;;;4237262;27;853;-52
2022/03/30 10:38:09;;;;;;;;;;;;;;;;;;4237002;28;1145;-53
2022/03/30 10:40:29;;;;;;;;;;;;;;;;;;4237075;28;1027;-52
2022/03/30 10:42:50;;;;;;;;;;;;;;;;;;4236349;27;1910;-52
2022/03/30 10:45:11;;;;;;;;;;;;;;;;;;4236918;27;1032;-52
2022/03/30 10:47:32;;;;;;;;;;;;;;;;;;4236941;27;1211;-52
2022/03/30 10:49:54;;;;;;;;;;;;;;;;;;4236624;27;988;-52
2022/03/30 10:52:15;;;;;;;;;;;;;;;;;;4237111;27;1145;-53
2022/03/30 10:54:35;;;;;;;;;;;;;;;;;;4237432;28;1149;-52
2022/03/30 10:56:56;;;;;;;;;;;;;;;;;;4237147;28;1035;-52
2022/03/30 10:59:16;;;;;;;;;;;;;;;;;;4236816;27;1010;-52
2022/03/30 11:01:38;;;;;;;;;;;;;;;;;;4235493;28;1913;-52
2022/03/30 11:03:59;;;;;;;;;;;;;;;;;;4237166;28;823;-52
2022/03/30 11:06:20;;;;;;;;;;;;;;;;;;4236794;27;1035;-52
2022/03/30 11:08:42;;;;;;;;;;;;;;;;;;4236717;27;1098;-52
2022/03/30 11:11:02;;;;;;;;;;;;;;;;;;4236755;27;826;-52
2022/03/30 11:13:23;;;;;;;;;;;;;;;;;;4236715;27;1274;-52
2022/03/30 11:15:44;;;;;;;;;;;;;;;;;;4237082;28;1192;-52
2022/03/30 11:18:05;;;;;;;;;;;;;;;;;;4236670;27;1114;-52
2022/03/30 11:20:25;;;;;;;;;;;;;;;;;;4236751;27;991;-52
2022/03/30 11:22:47;;;;;;;;;;;;;;;;;;4236929;28;1964;-52
2022/03/30 11:25:07;;;;;;;;;;;;;;;;;;4239919;27;1086;-52
2022/03/30 11:27:28;;;;;;;;;;;;;;;;;;4239423;27;1235;-52
2022/03/30 11:29:49;;;;;;;;;;;;;;;;;;4239810;28;1124;-52
2022/03/30 11:32:10;;;;;;;;;;;;;;;;;;4239525;27;1103;-52
2022/03/30 11:34:32;;;;;;;;;;;;;;;;;;4239201;27;1053;-52
2022/03/30 11:36:53;;;;;;;;;;;;;;;;;;4239478;27;1373;-52
2022/03/30 11:39:13;;;;;;;;;;;;;;;;;;4239271;27;1085;-52
2022/03/30 11:41:34;;;;;;;;;;;;;;;;;;4239162;27;1971;-51
2022/03/30 11:46:37;;;;;;;;;;;;;;;;;;4239353;27;1153;-52
2022/03/30 11:48:58;;;;;;;;;;;;;;;;;;4239630;28;913;-53
2022/03/30 11:51:18;;;;;;;;;;;;;;;;;;4239580;27;1142;-52
2022/03/30 11:53:39;;;;;;;;;;;;;;;;;;4239143;27;873;-52
2022/03/30 11:56:00;;;;;;;;;;;;;;;;;;4239133;27;1011;-55
2022/03/30 11:58:20;;;;;;;;;;;;;;;;;;4239234;27;1181;-52
2022/03/30 12:00:41;;;;;;;;;;;;;;;;;;4239446;28;811;-52
2022/03/30 12:03:02;;;;;;;;;;;;;;;;;;4239136;28;1909;-52
2022/03/30 12:05:23;;;;;;;;;;;;;;;;;;4239398;27;1144;-53
2022/03/30 12:07:45;;;;;;;;;;;;;;;;;;4238935;27;1015;-52
2022/03/30 12:10:05;;;;;;;;;;;;;;;;;;4238276;27;1083;-52
2022/03/30 12:12:26;;;;;;;;;;;;;;;;;;4239519;28;1603;-52
2022/03/30 12:14:47;;;;;;;;;;;;;;;;;;4238789;27;1329;-52
2022/03/30 12:17:07;;;;;;;;;;;;;;;;;;4239091;28;761;-52
2022/03/30 12:19:28;;;;;;;;;;;;;;;;;;4238957;27;944;-52
2022/03/30 12:21:49;;;;;;;;;;;;;;;;;;4238625;27;1979;-53
2022/03/30 12:24:11;;;;;;;;;;;;;;;;;;4238497;27;970;-52
2022/03/30 12:26:32;;;;;;;;;;;;;;;;;;4238784;27;969;-52
2022/03/30 12:28:52;;;;;;;;;;;;;;;;;;4238820;27;1032;-52
2022/03/30 12:31:14;;;;;;;;;;;;;;;;;;4237497;28;1215;-52
2022/03/30 12:33:34;;;;;;;;;;;;;;;;;;4238716;27;977;-52
2022/03/30 12:35:55;;;;;;;;;;;;;;;;;;4238714;27;969;-54
2022/03/30 12:38:16;;;;;;;;;;;;;;;;;;4238930;28;853;-52
2022/03/30 12:40:36;;;;;;;;;;;;;;;;;;4238987;27;1199;-52
2022/03/30 12:42:57;;;;;;;;;;;;;;;;;;4238522;27;1917;-52
2022/03/30 12:45:18;;;;;;;;;;;;;;;;;;4238831;28;849;-52
2022/03/30 12:47:38;;;;;;;;;;;;;;;;;;4238706;27;1113;-53
2022/03/30 12:49:59;;;;;;;;;;;;;;;;;;4238602;27;1189;-52
2022/03/30 12:52:20;;;;;;;;;;;;;;;;;;4238657;27;975;-52
2022/03/30 12:54:41;;;;;;;;;;;;;;;;;;4238352;27;1207;-53
2022/03/30 12:57:02;;;;;;;;;;;;;;;;;;4238306;27;996;-52
2022/03/30 12:59:24;;;;;;;;;;;;;;;;;;4237047;28;1034;-52
2022/03/30 13:01:49;;;;;;;;;;;;;;;;;;4238659;27;1203;-52
2022/03/30 13:04:09;;;;;;;;;;;;;;;;;;4238232;27;1068;-53
2022/03/30 13:06:30;;;;;;;;;;;;;;;;;;4238593;27;972;-52
2022/03/30 13:08:51;;;;;;;;;;;;;;;;;;4238405;27;1166;-52
2022/03/30 13:11:13;;;;;;;;;;;;;;;;;;4238144;27;1101;-53
2022/03/30 13:13:34;;;;;;;;;;;;;;;;;;4238109;27;1226;-52
2022/03/30 13:15:54;;;;;;;;;;;;;;;;;;4238466;27;961;-52
2022/03/30 13:18:17;;;;;;;;;;;;;;;;;;4238260;27;1194;-53
2022/03/30 13:20:37;;;;;;;;;;;;;;;;;;4238028;27;1000;-52
2022/03/30 13:22:58;;;;;;;;;;;;;;;;;;4237962;27;1984;-52
2022/03/30 13:25:18;;;;;;;;;;;;;;;;;;4238344;28;1108;-52
2022/03/30 13:27:40;;;;;;;;;;;;;;;;;;4237906;28;965;-51
2022/03/30 13:30:00;;;;;;;;;;;;;;;;;;4238064;27;982;-52
2022/03/30 13:32:21;;;;;;;;;;;;;;;;;;4237889;27;956;-52
2022/03/30 13:34:43;;;;;;;;;;;;;;;;;;4237593;28;886;-52
2022/03/30 13:37:03;;;;;;;;;;;;;;;;;;4237886;28;1045;-52
2022/03/30 13:39:24;;;;;;;;;;;;;;;;;;4238033;28;1122;-53
2022/03/30 13:41:45;;;;;;;;;;;;;;;;;;4237834;27;1003;-52
2022/03/30 13:44:05;;;;;;;;;;;;;;;;;;4237942;28;1921;-52
2022/03/30 13:46:26;;;;;;;;;;;;;;;;;;4237313;27;1171;-53
2022/03/30 13:48:47;;;;;;;;;;;;;;;;;;4237855;27;1112;-52
2022/03/30 13:51:08;;;;;;;;;;;;;;;;;;4237954;27;961;-52
2022/03/30 13:53:28;;;;;;;;;;;;;;;;;;4237736;27;1162;-53
2022/03/30 13:55:49;;;;;;;;;;;;;;;;;;4237890;28;993;-52
2022/03/30 13:58:10;;;;;;;;;;;;;;;;;;4237784;28;968;-52
2022/03/30 14:00:30;;;;;;;;;;;;;;;;;;4237479;27;990;-52
2022/03/30 14:02:51;;;;;;;;;;;;;;;;;;4237475;27;1894;-53
2022/03/30 14:05:12;;;;;;;;;;;;;;;;;;4237519;27;1002;-53
2022/03/30 14:07:33;;;;;;;;;;;;;;;;;;4237272;27;1390;-53
2022/03/30 14:09:54;;;;;;;;;;;;;;;;;;4237509;27;1194;-53
2022/03/30 14:12:15;;;;;;;;;;;;;;;;;;4237598;28;1331;-52
2022/03/30 14:14:35;;;;;;;;;;;;;;;;;;4237682;28;866;-52
2022/03/30 14:16:58;;;;;;;;;;;;;;;;;;4236356;28;1026;-53
2022/03/30 14:19:20;;;;;;;;;;;;;;;;;;4237315;27;964;-53
2022/03/30 14:21:40;;;;;;;;;;;;;;;;;;4237174;27;910;-52
2022/03/30 14:24:02;;;;;;;;;;;;;;;;;;4237657;28;1913;-53
2022/03/30 14:26:23;;;;;;;;;;;;;;;;;;4237820;28;992;-52
2022/03/30 14:28:43;;;;;;;;;;;;;;;;;;4237461;28;911;-52
2022/03/30 14:31:04;;;;;;;;;;;;;;;;;;4236194;28;1120;-52
2022/03/30 14:33:25;;;;;;;;;;;;;;;;;;4236765;27;951;-52
2022/03/30 14:35:46;;;;;;;;;;;;;;;;;;4237022;27;1176;-52
2022/03/30 14:38:08;;;;;;;;;;;;;;;;;;4237183;28;1045;-52
2022/03/30 14:40:28;;;;;;;;;;;;;;;;;;4237527;27;965;-53
2022/03/30 14:42:49;;;;;;;;;;;;;;;;;;4237260;27;1905;-52
2022/03/30 14:45:10;;;;;;;;;;;;;;;;;;4237330;28;845;-53
2022/03/30 14:47:31;;;;;;;;;;;;;;;;;;4237281;27;946;-52
2022/03/30 14:49:52;;;;;;;;;;;;;;;;;;4216558;28;2002;-52
2022/03/30 14:52:13;;;;;;;;;;;;;;;;;;4204175;28;2303;-53
2022/03/30 14:54:33;;;;;;;;;;;;;;;;;;4212470;28;1943;-52
2022/03/30 14:56:54;;;;;;;;;;;;;;;;;;4206300;28;2846;-52
2022/03/30 14:59:17;;;;;;;;;;;;;;;;;;4206430;28;1503;-53
2022/03/30 15:01:37;;;;;;;;;;;;;;;;;;4202956;28;1199;-52
2022/03/30 15:03:58;;;;;;;;;;;;;;;;;;4217469;28;1963;-52
2022/03/30 15:06:20;;;;;;;;;;;;;;;;;;4219743;28;1008;-53
2022/03/30 15:08:41;;;;;;;;;;;;;;;;;;4217036;28;978;-52
2022/03/30 15:11:02;;;;;;;;;;;;;;;;;;4219008;28;1279;-52
2022/03/30 15:13:23;;;;;;;;;;;;;;;;;;4219784;28;1261;-53
2022/03/30 15:15:44;;;;;;;;;;;;;;;;;;4212228;28;1990;-52
2022/03/30 15:18:04;;;;;;;;;;;;;;;;;;4203375;28;2639;-53
2022/03/30 15:20:25;;;;;;;;;;;;;;;;;;4203987;28;2662;-53
2022/03/30 15:22:46;;;;;;;;;;;;;;;;;;4205144;28;2018;-52
2022/03/30 15:25:07;;;;;;;;;;;;;;;;;;4202969;28;2716;-53
2022/03/30 15:27:29;;;;;;;;;;;;;;;;;;4204231;28;1922;-52
2022/03/30 15:29:50;;;;;;;;;;;;;;;;;;4202349;28;2656;-52
2022/03/30 15:32:11;;;;;;;;;;;;;;;;;;4210412;28;2339;-52
2022/03/30 15:34:32;;;;;;;;;;;;;;;;;;4200307;28;2327;-53
2022/03/30 15:36:52;;;;;;;;;;;;;;;;;;4204420;28;2532;-52
2022/03/30 15:39:13;;;;;;;;;;;;;;;;;;4202400;28;1163;-53
2022/03/30 15:41:34;;;;;;;;;;;;;;;;;;4208238;28;1161;-52
2022/03/30 15:43:55;;;;;;;;;;;;;;;;;;4218745;28;1984;-52
2022/03/30 15:46:15;;;;;;;;;;;;;;;;;;4219011;28;1183;-52
2022/03/30 15:48:36;;;;;;;;;;;;;;;;;;4219078;28;992;-51
2022/03/30 15:50:57;;;;;;;;;;;;;;;;;;4208376;28;2997;-52
2022/03/30 15:53:19;;;;;;;;;;;;;;;;;;4210608;28;1867;-52
2022/03/30 15:55:40;;;;;;;;;;;;;;;;;;4208468;28;2618;-51
2022/03/30 15:58:00;;;;;;;;;;;;;;;;;;4212148;28;2287;-52
2022/03/30 16:00:21;;;;;;;;;;;;;;;;;;4203215;28;2512;-52
2022/03/30 16:02:42;;;;;;;;;;;;;;;;;;4210157;28;2354;-52
2022/03/30 16:05:03;;;;;;;;;;;;;;;;;;4210496;28;2726;-52
2022/03/30 16:07:23;;;;;;;;;;;;;;;;;;4202556;28;2600;-51
2022/03/30 16:09:44;;;;;;;;;;;;;;;;;;4213239;28;1741;-52
2022/03/30 16:12:09;;;;;;;;;;;;;;;;;;4216578;28;2594;-52
2022/03/30 16:14:30;;;;;;;;;;;;;;;;;;4220756;28;1183;-52
2022/03/30 16:16:51;;;;;;;;;;;;;;;;;;4219206;28;1371;-52
2022/03/30 16:19:12;;;;;;;;;;;;;;;;;;4218958;28;1832;-54
2022/03/30 16:21:33;;;;;;;;;;;;;;;;;;4221058;28;1573;-53
2022/03/30 16:23:54;;;;;;;;;;;;;;;;;;4220271;28;1909;-54
2022/03/30 16:26:14;;;;;;;;;;;;;;;;;;4220212;28;1283;-54
2022/03/30 16:28:36;;;;;;;;;;;;;;;;;;4220476;28;1193;-54
2022/03/30 16:30:57;;;;;;;;;;;;;;;;;;4219393;28;1227;-54
2022/03/30 16:33:18;;;;;;;;;;;;;;;;;;4221768;28;824;-54
2022/03/30 16:35:39;;;;;;;;;;;;;;;;;;4221904;28;989;-54